Weather at Sheraton Arlington Hotel Heliport

Public forecast

Using degrees Fahrenheit for public forecast. Weather courtesy of forecast.io.

Closest aviation weather report (METAR) to Sheraton Arlington Hotel Heliport

Report is more than 2 hours old.

Closest report is Grand Prairie Municipal Airport, 3.9 nm (7.3 km) SSE.

2024/06/24 20:50 (retrieved 4 hours ago)

KGPM 242050Z 14007KT 10SM SKC 35/19 A2992

Closest aviation forecast (TAF) to Sheraton Arlington Hotel Heliport

Closest forecast is Arlington Municipal Airport, 5.7 nm (10.5 km) S.

2024/06/24 21:54 Ammendment (retrieved 3 hours ago)

TAF AMD KGKY 242050Z 2421/2518 17009KT P6SM SCT060